Time;durP1;ratioP1;P1;durP2;ratioP2;P2;SDS_P1;SDS_P2;PMS_P1;PMS_P2;Temp;Humidity;BMP_temperature;BMP_pressure;BME280_temperature;BME280_humidity;BME280_pressure;Samples;Min_cycle;Max_cycle;Signal;HPM_P1;HPM_P2
2023/08/31 00:01:31;;;;;;;6.90;2.95;;;14.00;99.90;;;;;;5033889;28;20046;-54
2023/08/31 00:03:59;;;;;;;5.80;3.00;;;14.00;99.90;;;;;;5032928;28;20454;-53
2023/08/31 00:06:26;;;;;;;8.10;3.45;;;13.90;99.90;;;;;;5033656;28;20484;-55
2023/08/31 00:08:53;;;;;;;8.50;2.90;;;13.90;99.90;;;;;;5033535;28;20140;-50
2023/08/31 00:11:19;;;;;;;8.13;3.42;;;14.00;99.90;;;;;;5033895;28;20052;-50
2023/08/31 00:13:46;;;;;;;5.47;2.75;;;14.00;99.90;;;;;;5031428;28;20045;-49
2023/08/31 00:16:13;;;;;;;7.07;3.30;;;14.00;99.90;;;;;;5018562;28;20493;-48
2023/08/31 00:18:40;;;;;;;7.30;2.85;;;14.00;99.90;;;;;;5024826;28;20042;-50
2023/08/31 00:21:08;;;;;;;5.95;2.42;;;14.10;99.90;;;;;;5022553;28;20041;-51
2023/08/31 00:23:37;;;;;;;7.32;2.67;;;14.10;99.90;;;;;;5013948;28;20038;-56
2023/08/31 00:26:05;;;;;;;8.07;2.85;;;14.00;99.90;;;;;;5013954;28;20062;-50
2023/08/31 00:28:31;;;;;;;8.25;2.70;;;14.00;99.90;;;;;;5014112;28;20042;-51
2023/08/31 00:30:58;;;;;;;10.18;3.20;;;14.00;99.90;;;;;;5012542;28;20141;-48
2023/08/31 00:33:25;;;;;;;6.10;2.72;;;13.90;99.90;;;;;;5012378;28;20401;-52
2023/08/31 00:35:52;;;;;;;8.00;2.78;;;13.80;99.90;;;;;;5013706;28;20458;-55
2023/08/31 00:38:19;;;;;;;6.00;3.00;;;13.80;99.90;;;;;;5012292;28;20485;-53
2023/08/31 00:40:46;;;;;;;7.85;2.97;;;13.80;99.90;;;;;;5013711;28;20080;-52
2023/08/31 00:43:15;;;;;;;7.97;2.75;;;13.80;99.90;;;;;;5013600;28;20092;-53
2023/08/31 00:45:42;;;;;;;5.35;2.67;;;13.70;99.90;;;;;;5012119;28;20044;-51
2023/08/31 00:48:09;;;;;;;8.65;3.13;;;13.70;99.90;;;;;;5011818;28;20052;-51
2023/08/31 00:50:36;;;;;;;8.25;2.80;;;13.70;99.90;;;;;;5013279;28;20378;-49
2023/08/31 00:53:03;;;;;;;5.65;2.80;;;13.60;99.90;;;;;;5013404;28;20072;-51
2023/08/31 00:55:31;;;;;;;10.75;2.97;;;13.60;99.90;;;;;;5012480;28;20069;-51
2023/08/31 00:57:58;;;;;;;7.80;2.63;;;13.50;99.90;;;;;;5013517;28;20046;-53
2023/08/31 01:00:25;;;;;;;7.57;2.95;;;13.50;99.90;;;;;;5013356;28;20117;-49
2023/08/31 01:02:52;;;;;;;6.75;3.03;;;13.50;99.90;;;;;;5012898;28;20045;-52
2023/08/31 01:05:19;;;;;;;5.70;2.78;;;13.50;99.90;;;;;;5011484;28;20555;-50
2023/08/31 01:07:45;;;;;;;6.75;2.88;;;13.40;99.90;;;;;;5012486;28;20045;-52
2023/08/31 01:10:12;;;;;;;5.95;2.80;;;13.40;99.90;;;;;;5011430;28;20041;-48
2023/08/31 01:12:40;;;;;;;8.20;2.80;;;13.40;99.90;;;;;;5013430;28;20056;-51
2023/08/31 01:15:07;;;;;;;8.88;2.90;;;13.40;99.90;;;;;;4995776;28;20469;-52
2023/08/31 01:17:35;;;;;;;7.28;3.20;;;13.40;99.90;;;;;;5013124;28;20034;-50
2023/08/31 01:20:03;;;;;;;6.70;2.45;;;13.40;99.90;;;;;;5011920;28;20046;-50
2023/08/31 01:22:31;;;;;;;7.03;2.85;;;13.40;99.90;;;;;;5012287;28;20046;-55
2023/08/31 01:24:57;;;;;;;5.80;2.78;;;13.40;99.90;;;;;;5013122;28;20041;-54
2023/08/31 01:27:24;;;;;;;7.10;3.42;;;13.40;99.90;;;;;;5015046;28;20057;-51
2023/08/31 01:29:51;;;;;;;7.82;3.20;;;13.40;99.90;;;;;;4999420;28;20092;-57
2023/08/31 01:32:18;;;;;;;8.02;3.05;;;13.40;99.90;;;;;;5017097;28;20045;-49
2023/08/31 01:34:45;;;;;;;5.55;2.53;;;13.40;99.90;;;;;;5016701;28;20080;-50
2023/08/31 01:37:12;;;;;;;6.03;2.90;;;13.40;99.90;;;;;;5016340;28;20041;-52
2023/08/31 01:39:41;;;;;;;8.98;3.10;;;13.40;99.90;;;;;;4999263;28;20145;-52
2023/08/31 01:42:08;;;;;;;6.78;2.83;;;13.30;99.90;;;;;;5015237;28;20041;-48
2023/08/31 01:44:35;;;;;;;7.60;3.00;;;13.30;99.90;;;;;;5015252;28;20108;-51
2023/08/31 01:47:02;;;;;;;5.18;2.70;;;13.30;99.90;;;;;;5016437;28;20088;-53
2023/08/31 01:49:29;;;;;;;8.43;2.83;;;13.30;99.90;;;;;;5015377;28;20108;-49
2023/08/31 01:51:56;;;;;;;7.07;2.85;;;13.30;99.90;;;;;;5014977;28;20053;-53
2023/08/31 01:54:23;;;;;;;5.07;2.67;;;13.30;99.90;;;;;;5014976;28;20077;-51
2023/08/31 01:56:49;;;;;;;6.10;2.75;;;13.20;99.90;;;;;;5014909;28;20038;-54
2023/08/31 01:59:16;;;;;;;9.38;2.90;;;13.20;99.90;;;;;;5015032;28;20049;-48
2023/08/31 02:01:43;;;;;;;5.40;2.70;;;13.10;99.90;;;;;;5015146;28;20042;-50
2023/08/31 02:04:10;;;;;;;7.68;3.15;;;13.10;99.90;;;;;;5015207;28;20050;-47
2023/08/31 02:06:37;;;;;;;5.13;2.65;;;13.10;99.90;;;;;;5016310;28;20465;-54
2023/08/31 02:09:06;;;;;;;7.03;3.35;;;13.10;99.90;;;;;;5016191;28;20080;-50
2023/08/31 02:11:37;;;;;;;9.15;2.67;;;13.10;99.90;;;;;;5014928;28;20377;-53
2023/08/31 02:14:05;;;;;;;7.10;2.63;;;13.10;99.90;;;;;;5016006;28;20042;-52
2023/08/31 02:16:31;;;;;;;7.68;2.80;;;13.10;99.90;;;;;;5014936;28;20070;-55
2023/08/31 02:18:58;;;;;;;6.22;2.92;;;13.10;99.90;;;;;;5014764;28;20046;-54
2023/08/31 02:21:25;;;;;;;6.95;2.60;;;13.10;99.90;;;;;;5015999;28;20046;-50
2023/08/31 02:23:52;;;;;;;8.80;3.22;;;13.10;99.90;;;;;;5015420;28;20042;-50
2023/08/31 02:26:19;;;;;;;8.80;3.80;;;13.10;99.90;;;;;;5015659;28;20042;-49
2023/08/31 02:28:46;;;;;;;6.78;2.70;;;13.10;99.90;;;;;;5014224;28;20066;-50
2023/08/31 02:31:12;;;;;;;5.75;2.58;;;13.10;99.90;;;;;;5014636;28;20390;-51
2023/08/31 02:33:39;;;;;;;4.82;2.33;;;13.10;99.90;;;;;;5015941;28;20088;-51
2023/08/31 02:36:06;;;;;;;6.07;3.13;;;13.10;99.90;;;;;;5014462;28;20060;-48
2023/08/31 02:38:33;;;;;;;6.75;2.70;;;13.10;99.90;;;;;;5014513;28;20202;-51
2023/08/31 02:41:00;;;;;;;4.43;2.45;;;13.10;99.90;;;;;;5014501;28;20394;-50
2023/08/31 02:43:30;;;;;;;7.45;2.97;;;13.10;99.90;;;;;;5015760;28;20046;-55
2023/08/31 02:45:56;;;;;;;7.22;3.03;;;13.10;99.90;;;;;;5014333;28;20034;-54
2023/08/31 02:48:25;;;;;;;10.88;3.30;;;13.10;99.90;;;;;;5013735;28;20054;-53
2023/08/31 02:50:52;;;;;;;8.23;2.70;;;13.10;99.90;;;;;;5014070;28;20038;-51
2023/08/31 02:53:19;;;;;;;6.75;2.78;;;13.10;99.90;;;;;;5015387;28;20045;-49
2023/08/31 02:55:46;;;;;;;6.03;3.10;;;13.10;99.90;;;;;;5014942;28;20058;-51
2023/08/31 02:58:12;;;;;;;7.45;3.03;;;13.10;99.90;;;;;;5015403;28;20038;-52
2023/08/31 03:00:42;;;;;;;5.80;2.58;;;13.10;99.90;;;;;;5013864;28;20128;-53
2023/08/31 03:03:09;;;;;;;7.13;3.22;;;13.10;99.90;;;;;;5015234;28;20477;-53
2023/08/31 03:05:37;;;;;;;6.63;3.17;;;13.10;99.90;;;;;;5013500;28;20042;-53
2023/08/31 03:08:04;;;;;;;7.38;3.13;;;13.20;99.90;;;;;;5014842;28;20054;-53
2023/08/31 03:10:31;;;;;;;6.68;3.00;;;13.10;99.90;;;;;;5014156;28;20049;-50
2023/08/31 03:12:57;;;;;;;5.95;2.60;;;13.10;99.90;;;;;;5013723;28;20056;-55
2023/08/31 03:15:24;;;;;;;5.63;2.63;;;13.10;99.90;;;;;;5013619;28;20078;-50
2023/08/31 03:17:51;;;;;;;5.80;2.70;;;13.20;99.90;;;;;;5013463;28;20103;-51
2023/08/31 03:20:18;;;;;;;8.55;2.70;;;13.10;99.90;;;;;;5014523;28;20045;-53
2023/08/31 03:22:45;;;;;;;6.80;2.88;;;13.10;99.90;;;;;;5013465;28;20057;-48
2023/08/31 03:25:11;;;;;;;9.20;2.85;;;13.10;99.90;;;;;;5013605;28;20044;-47
2023/08/31 03:27:38;;;;;;;5.97;2.97;;;13.10;99.90;;;;;;5014816;28;20350;-53
2023/08/31 03:30:05;;;;;;;6.35;2.67;;;13.10;99.90;;;;;;5014841;28;20053;-52
2023/08/31 03:32:32;;;;;;;7.40;2.80;;;13.10;99.90;;;;;;5014736;28;20493;-54
2023/08/31 03:34:59;;;;;;;9.20;2.90;;;13.10;99.90;;;;;;5013173;28;20082;-51
2023/08/31 03:37:26;;;;;;;7.43;2.67;;;13.10;99.90;;;;;;5013020;28;20128;-54
2023/08/31 03:39:54;;;;;;;7.70;3.47;;;13.10;99.90;;;;;;5012820;28;20061;-50
2023/08/31 03:42:21;;;;;;;6.68;2.65;;;13.10;99.90;;;;;;5014579;28;20429;-50
2023/08/31 03:44:48;;;;;;;5.55;2.78;;;13.10;99.90;;;;;;5014139;28;20121;-51
2023/08/31 03:47:16;;;;;;;8.07;3.10;;;13.10;99.90;;;;;;5012759;28;20046;-55
2023/08/31 03:49:43;;;;;;;5.07;2.58;;;13.10;99.90;;;;;;5011903;28;20038;-50
2023/08/31 03:52:10;;;;;;;6.95;2.90;;;13.10;99.90;;;;;;5013377;28;20069;-55
2023/08/31 03:54:36;;;;;;;6.85;2.60;;;13.10;99.90;;;;;;5026803;28;20045;-53
2023/08/31 03:57:03;;;;;;;5.15;2.53;;;13.10;99.90;;;;;;5032621;28;20515;-54
2023/08/31 03:59:30;;;;;;;5.95;2.90;;;13.10;99.90;;;;;;5034028;28;20136;-49
2023/08/31 04:01:57;;;;;;;6.85;2.63;;;13.10;99.90;;;;;;5032243;28;20045;-54
2023/08/31 04:04:26;;;;;;;10.98;2.60;;;13.10;99.90;;;;;;5032733;28;20033;-54
2023/08/31 04:06:52;;;;;;;5.50;2.78;;;13.00;99.90;;;;;;5031917;28;20058;-50
2023/08/31 04:09:19;;;;;;;4.97;2.50;;;13.00;99.90;;;;;;5032511;28;20079;-55
2023/08/31 04:11:46;;;;;;;5.97;3.00;;;13.00;99.90;;;;;;5032619;28;20091;-49
2023/08/31 04:14:13;;;;;;;7.22;3.10;;;13.00;99.90;;;;;;5031873;28;20140;-47
2023/08/31 04:16:39;;;;;;;7.80;3.00;;;13.00;99.90;;;;;;5033498;28;20447;-49
2023/08/31 04:19:06;;;;;;;6.53;3.20;;;13.00;99.90;;;;;;5015528;28;20485;-51
2023/08/31 04:21:33;;;;;;;5.00;2.33;;;13.00;99.90;;;;;;5033759;28;20059;-46
2023/08/31 04:24:00;;;;;;;7.30;2.83;;;13.00;99.90;;;;;;5033173;28;20045;-54
2023/08/31 04:26:27;;;;;;;5.55;2.55;;;12.90;99.90;;;;;;5033596;28;20041;-52
2023/08/31 04:28:54;;;;;;;5.25;2.88;;;13.00;99.90;;;;;;5033739;28;20045;-47
2023/08/31 04:31:21;;;;;;;7.43;3.28;;;13.00;99.90;;;;;;5033519;28;20457;-49
2023/08/31 04:33:48;;;;;;;8.88;2.80;;;13.00;99.90;;;;;;5032629;28;20489;-48
2023/08/31 04:36:15;;;;;;;5.45;2.63;;;13.00;99.90;;;;;;5033084;28;20046;-47
2023/08/31 04:38:42;;;;;;;7.25;2.83;;;13.00;99.90;;;;;;5033392;28;20033;-53
2023/08/31 04:41:09;;;;;;;7.78;3.38;;;12.90;99.90;;;;;;5032947;28;20049;-48
2023/08/31 04:43:35;;;;;;;6.68;2.50;;;12.90;99.90;;;;;;5032697;28;20088;-49
2023/08/31 04:46:03;;;;;;;6.72;3.00;;;12.80;99.90;;;;;;5032990;28;20044;-48
2023/08/31 04:48:30;;;;;;;5.43;3.30;;;12.80;99.90;;;;;;5032632;28;20048;-47
2023/08/31 04:50:57;;;;;;;5.47;2.97;;;12.70;99.90;;;;;;5032774;28;20040;-53
2023/08/31 04:53:24;;;;;;;8.43;3.33;;;12.70;99.90;;;;;;5032522;28;20157;-49
2023/08/31 04:55:51;;;;;;;6.25;3.03;;;12.70;99.90;;;;;;5032617;28;20057;-52
2023/08/31 04:58:18;;;;;;;5.53;2.80;;;12.70;99.90;;;;;;5032613;28;20120;-55
2023/08/31 05:00:45;;;;;;;6.20;3.08;;;12.70;99.90;;;;;;5032852;28;20045;-52
2023/08/31 05:03:11;;;;;;;6.45;3.03;;;12.70;99.90;;;;;;5037637;28;20443;-48
2023/08/31 05:05:39;;;;;;;6.15;2.83;;;12.70;99.90;;;;;;5039505;28;20034;-53
2023/08/31 05:08:06;;;;;;;10.73;3.42;;;12.70;99.90;;;;;;5038973;28;20459;-52
2023/08/31 05:10:32;;;;;;;7.22;2.97;;;12.70;99.90;;;;;;5039192;28;20120;-53
2023/08/31 05:12:59;;;;;;;5.05;2.90;;;12.80;99.90;;;;;;5037888;28;20121;-52
2023/08/31 05:15:30;;;;;;;5.10;2.90;;;12.70;99.90;;;;;;5039321;28;20068;-50
2023/08/31 05:17:56;;;;;;;6.05;3.22;;;12.80;99.90;;;;;;5039159;28;20041;-52
2023/08/31 05:20:23;;;;;;;6.13;3.00;;;12.80;99.90;;;;;;5039501;28;20068;-55
2023/08/31 05:22:50;;;;;;;8.57;3.13;;;12.80;99.90;;;;;;5037538;28;20467;-52
2023/08/31 05:25:17;;;;;;;7.47;2.60;;;12.90;99.90;;;;;;5039255;28;20077;-55
2023/08/31 05:27:44;;;;;;;6.43;3.03;;;12.90;99.90;;;;;;5037583;28;20037;-53
2023/08/31 05:30:11;;;;;;;7.63;3.30;;;12.90;99.90;;;;;;5039429;28;20045;-53
2023/08/31 05:32:38;;;;;;;7.75;3.42;;;13.00;99.90;;;;;;5039560;28;20099;-51
2023/08/31 05:35:05;;;;;;;6.43;3.00;;;13.00;99.90;;;;;;5038465;28;20042;-50
2023/08/31 05:37:32;;;;;;;7.80;2.83;;;13.00;99.90;;;;;;5037768;28;20041;-50
2023/08/31 05:39:58;;;;;;;7.18;3.00;;;13.00;99.90;;;;;;5039506;28;20041;-50
2023/08/31 05:42:26;;;;;;;4.18;2.70;;;13.00;99.90;;;;;;5039083;28;20042;-54
2023/08/31 05:44:53;;;;;;;5.93;3.10;;;13.10;99.90;;;;;;5039452;28;20067;-52
2023/08/31 05:47:20;;;;;;;10.13;3.20;;;13.10;99.90;;;;;;5039424;28;20079;-46
2023/08/31 05:49:46;;;;;;;4.85;2.47;;;13.10;99.90;;;;;;5039530;28;20052;-50
2023/08/31 05:52:13;;;;;;;5.55;3.10;;;13.10;99.90;;;;;;5038905;28;20499;-47
2023/08/31 05:54:40;;;;;;;7.53;3.10;;;13.20;99.90;;;;;;5038915;28;20052;-50
2023/08/31 05:57:07;;;;;;;9.18;3.10;;;13.20;99.90;;;;;;5039134;28;20400;-49
2023/08/31 05:59:34;;;;;;;4.57;3.08;;;13.20;99.90;;;;;;5039406;28;20087;-52
2023/08/31 06:02:00;;;;;;;8.27;3.00;;;13.20;99.90;;;;;;5039244;28;20124;-50
2023/08/31 06:04:27;;;;;;;8.02;3.10;;;13.30;99.90;;;;;;5038021;28;20043;-53
2023/08/31 06:06:54;;;;;;;7.68;2.97;;;13.40;99.90;;;;;;5039133;28;20041;-51
2023/08/31 06:09:21;;;;;;;8.38;3.08;;;13.40;99.90;;;;;;5038005;28;20120;-50
2023/08/31 06:11:48;;;;;;;8.60;3.08;;;13.50;99.90;;;;;;5038982;28;20416;-52
2023/08/31 06:14:15;;;;;;;8.77;3.20;;;13.60;99.90;;;;;;5035524;28;20488;-49
2023/08/31 06:16:41;;;;;;;7.65;3.50;;;13.60;99.90;;;;;;5035753;28;20044;-49
2023/08/31 06:19:08;;;;;;;5.20;3.10;;;13.70;99.90;;;;;;5036097;28;20053;-49
2023/08/31 06:21:35;;;;;;;8.63;3.17;;;13.80;99.90;;;;;;5035697;28;20045;-52
2023/08/31 06:24:03;;;;;;;9.05;2.88;;;13.80;99.90;;;;;;5035783;28;20042;-49
2023/08/31 06:26:30;;;;;;;7.30;3.38;;;13.80;99.90;;;;;;5034261;28;20056;-52
2023/08/31 06:28:57;;;;;;;6.15;3.30;;;13.90;99.90;;;;;;5034636;28;20049;-52
2023/08/31 06:31:24;;;;;;;7.03;2.70;;;14.00;99.90;;;;;;5035994;28;20053;-50
2023/08/31 06:33:50;;;;;;;6.68;3.20;;;14.00;99.90;;;;;;5035621;28;20425;-51
2023/08/31 06:36:17;;;;;;;11.27;3.22;;;14.00;99.90;;;;;;5035138;28;20037;-47
2023/08/31 06:38:44;;;;;;;5.45;2.65;;;14.10;99.90;;;;;;5035665;28;20477;-53
2023/08/31 06:41:11;;;;;;;7.47;3.05;;;14.20;99.90;;;;;;5035100;28;20049;-51
2023/08/31 06:43:38;;;;;;;8.75;3.17;;;14.30;99.90;;;;;;5035646;28;20037;-51
2023/08/31 06:46:04;;;;;;;8.65;3.28;;;14.40;99.90;;;;;;5034481;28;20453;-50
2023/08/31 06:48:50;;;;;;;7.25;2.83;;;14.40;99.90;;;;;;5035356;28;20442;-51
2023/08/31 06:51:17;;;;;;;8.35;2.90;;;14.50;99.90;;;;;;5035215;28;20057;-49
2023/08/31 06:53:43;;;;;;;5.30;2.67;;;14.60;99.90;;;;;;5034918;28;20053;-46
2023/08/31 06:56:10;;;;;;;8.07;2.85;;;14.70;99.90;;;;;;5034790;28;20053;-51
2023/08/31 06:58:37;;;;;;;8.05;2.85;;;14.70;99.90;;;;;;5035010;28;20049;-52
2023/08/31 07:01:04;;;;;;;7.82;2.90;;;14.70;99.90;;;;;;5035296;28;20056;-52
2023/08/31 07:03:31;;;;;;;11.05;3.17;;;14.80;99.90;;;;;;5034594;28;20069;-52
2023/08/31 07:05:58;;;;;;;7.90;3.28;;;14.80;99.90;;;;;;5035298;28;20041;-56
2023/08/31 07:08:25;;;;;;;7.88;2.60;;;14.90;99.90;;;;;;5034930;28;20057;-49
2023/08/31 07:10:52;;;;;;;6.32;2.75;;;14.90;99.90;;;;;;5035292;28;20049;-53
2023/08/31 07:13:18;;;;;;;7.93;3.10;;;14.90;99.90;;;;;;5034495;28;20048;-48
2023/08/31 07:15:45;;;;;;;9.80;3.05;;;14.90;99.90;;;;;;5035016;28;20132;-49
2023/08/31 07:18:12;;;;;;;7.63;3.03;;;14.90;99.90;;;;;;5034200;28;20049;-50
2023/08/31 07:20:39;;;;;;;7.53;2.80;;;15.00;99.90;;;;;;5034920;28;20061;-52
2023/08/31 07:23:06;;;;;;;7.53;2.80;;;15.00;99.90;;;;;;5034707;28;20485;-50
2023/08/31 07:25:32;;;;;;;6.28;2.83;;;15.00;99.90;;;;;;5033479;28;20053;-52
2023/08/31 07:27:59;;;;;;;6.93;3.25;;;15.00;99.90;;;;;;5034490;28;20465;-50
2023/08/31 07:30:26;;;;;;;8.80;3.03;;;15.00;99.90;;;;;;5034596;28;20078;-51
2023/08/31 07:32:53;;;;;;;7.28;3.00;;;15.10;99.90;;;;;;5033444;28;20042;-55
2023/08/31 07:35:20;;;;;;;9.80;3.20;;;15.20;99.90;;;;;;5034683;28;20128;-49
2023/08/31 07:37:46;;;;;;;9.45;3.10;;;15.20;99.90;;;;;;5034019;28;20056;-45
2023/08/31 07:40:13;;;;;;;9.52;3.08;;;15.30;99.90;;;;;;5034505;28;20060;-50
2023/08/31 07:42:40;;;;;;;7.85;3.42;;;15.40;99.90;;;;;;5034427;28;20041;-49
2023/08/31 07:45:07;;;;;;;6.53;2.83;;;15.50;99.90;;;;;;5034159;28;20041;-48
2023/08/31 07:47:34;;;;;;;6.32;3.42;;;15.60;99.90;;;;;;5034576;28;20037;-50
2023/08/31 07:50:01;;;;;;;7.57;2.95;;;15.70;99.90;;;;;;5034345;28;20040;-49
2023/08/31 07:52:28;;;;;;;5.95;2.53;;;15.70;99.90;;;;;;5033517;28;20115;-51
2023/08/31 07:54:55;;;;;;;9.95;3.05;;;15.80;99.90;;;;;;5033928;28;20472;-49
2023/08/31 07:57:22;;;;;;;6.45;2.63;;;15.90;99.90;;;;;;5033955;28;20049;-49
2023/08/31 07:59:48;;;;;;;6.60;2.78;;;16.00;99.90;;;;;;5034451;28;20120;-50
2023/08/31 08:02:16;;;;;;;6.22;3.00;;;16.10;99.90;;;;;;5033781;28;20378;-49
2023/08/31 08:04:43;;;;;;;8.30;2.90;;;16.10;99.90;;;;;;5034103;28;20121;-50
2023/08/31 08:07:10;;;;;;;5.28;2.40;;;16.20;99.90;;;;;;5033398;28;20520;-52
2023/08/31 08:09:36;;;;;;;5.38;2.40;;;16.20;99.90;;;;;;5033896;28;20037;-54
2023/08/31 08:12:03;;;;;;;6.85;2.85;;;16.30;99.90;;;;;;5033690;28;20045;-49
2023/08/31 08:14:30;;;;;;;6.65;2.42;;;16.40;99.90;;;;;;5032219;28;20080;-50
2023/08/31 08:16:57;;;;;;;6.57;2.80;;;16.50;99.90;;;;;;5033068;28;20055;-51
2023/08/31 08:19:24;;;;;;;5.38;2.38;;;16.50;99.90;;;;;;5033680;28;20049;-49
2023/08/31 08:21:51;;;;;;;5.13;2.40;;;16.50;99.90;;;;;;5033090;28;20052;-50
2023/08/31 08:24:18;;;;;;;6.32;2.28;;;16.60;99.90;;;;;;5032762;28;20057;-55
2023/08/31 08:26:44;;;;;;;6.78;2.47;;;16.70;99.90;;;;;;5033419;28;20041;-50
2023/08/31 08:29:11;;;;;;;5.97;2.35;;;16.80;99.90;;;;;;5034124;28;20037;-49
2023/08/31 08:31:38;;;;;;;6.93;2.30;;;16.90;99.90;;;;;;5033606;28;20132;-53
2023/08/31 08:34:05;;;;;;;6.03;2.22;;;17.00;99.90;;;;;;5033865;28;20043;-49
2023/08/31 08:36:32;;;;;;;6.28;2.40;;;17.10;99.90;;;;;;5033222;28;20049;-47
2023/08/31 08:38:59;;;;;;;6.93;2.28;;;17.20;99.90;;;;;;5033278;28;20042;-50
2023/08/31 08:41:26;;;;;;;8.25;2.17;;;17.20;99.90;;;;;;5033244;28;20049;-53
2023/08/31 08:43:52;;;;;;;5.60;2.00;;;17.40;99.90;;;;;;5033328;28;20183;-50
2023/08/31 08:46:19;;;;;;;10.38;2.55;;;17.50;99.90;;;;;;5033410;28;20040;-51
2023/08/31 08:48:46;;;;;;;7.15;2.10;;;17.50;99.90;;;;;;5033570;28;20543;-50
2023/08/31 08:51:13;;;;;;;5.38;2.10;;;17.60;99.90;;;;;;5032842;28;20054;-49
2023/08/31 08:53:40;;;;;;;6.10;2.17;;;17.60;99.90;;;;;;5032872;28;20044;-50
2023/08/31 08:56:06;;;;;;;4.65;1.73;;;17.70;99.90;;;;;;5032592;28;20054;-52
2023/08/31 08:58:34;;;;;;;5.18;1.80;;;17.80;99.90;;;;;;5027454;28;20053;-53
2023/08/31 09:01:01;;;;;;;5.50;2.20;;;17.80;99.90;;;;;;5031212;28;20054;-53
2023/08/31 09:03:28;;;;;;;7.32;2.08;;;17.80;99.90;;;;;;5032378;28;20121;-49
2023/08/31 09:05:54;;;;;;;5.47;1.90;;;17.80;99.90;;;;;;5032296;28;20136;-53
2023/08/31 09:08:21;;;;;;;6.95;1.67;;;17.80;99.90;;;;;;5032608;28;20140;-50
2023/08/31 09:10:48;;;;;;;4.30;1.75;;;17.80;99.90;;;;;;5032892;28;20064;-56
2023/08/31 09:13:15;;;;;;;7.93;2.10;;;17.80;99.90;;;;;;5033303;28;20033;-54
2023/08/31 09:15:42;;;;;;;6.97;1.92;;;17.80;99.90;;;;;;5032946;28;20473;-53
2023/08/31 09:18:09;;;;;;;5.63;2.05;;;17.80;99.90;;;;;;5033223;28;20048;-54
2023/08/31 09:20:36;;;;;;;4.80;1.67;;;17.80;99.90;;;;;;5033086;28;20045;-50
2023/08/31 09:23:03;;;;;;;5.53;2.10;;;17.90;99.90;;;;;;5032893;28;20047;-56
2023/08/31 09:25:30;;;;;;;6.13;2.45;;;18.00;99.90;;;;;;5032701;28;20045;-51
2023/08/31 09:27:57;;;;;;;5.30;2.17;;;18.00;99.90;;;;;;5033380;28;20073;-49
2023/08/31 09:30:24;;;;;;;5.50;2.40;;;17.90;99.90;;;;;;5033648;28;20437;-52
2023/08/31 09:32:51;;;;;;;4.43;2.17;;;17.90;99.90;;;;;;5033299;28;20448;-48
2023/08/31 09:35:18;;;;;;;5.72;2.47;;;17.80;99.90;;;;;;5031485;28;20045;-56
2023/08/31 09:37:48;;;;;;;7.50;2.58;;;17.80;99.90;;;;;;5033081;28;20041;-53
2023/08/31 09:40:15;;;;;;;5.15;2.60;;;17.70;99.90;;;;;;5031812;28;20052;-58
2023/08/31 09:42:42;;;;;;;7.65;2.67;;;17.70;99.90;;;;;;5033058;28;20049;-46
2023/08/31 09:45:09;;;;;;;4.93;2.35;;;17.70;99.90;;;;;;5033479;28;20133;-54
2023/08/31 09:47:36;;;;;;;5.57;2.58;;;17.70;99.90;;;;;;5033224;28;20065;-53
2023/08/31 09:50:03;;;;;;;9.15;3.03;;;17.70;99.90;;;;;;5036279;28;20041;-53
2023/08/31 09:52:30;;;;;;;9.35;5.45;;;17.70;99.90;;;;;;5034810;28;20076;-49
2023/08/31 09:54:57;;;;;;;9.75;4.85;;;17.70;99.90;;;;;;5035321;28;20107;-55
2023/08/31 09:57:23;;;;;;;7.38;4.03;;;17.60;99.90;;;;;;5032577;28;20381;-52
2023/08/31 10:00:09;;;;;;;6.53;3.28;;;17.60;99.90;;;;;;5035532;28;20486;-54
2023/08/31 10:02:36;;;;;;;4.50;2.63;;;17.50;99.90;;;;;;5036008;28;20404;-54
2023/08/31 10:05:03;;;;;;;7.18;2.78;;;17.40;99.90;;;;;;5034522;28;20121;-52
2023/08/31 10:07:30;;;;;;;6.85;2.15;;;17.40;99.90;;;;;;5035042;28;20117;-54
2023/08/31 10:09:57;;;;;;;6.93;2.20;;;17.40;99.90;;;;;;5034917;28;20065;-54
2023/08/31 10:12:24;;;;;;;5.63;2.03;;;17.40;99.90;;;;;;5034609;28;20088;-58
2023/08/31 10:14:52;;;;;;;7.13;2.13;;;17.40;99.90;;;;;;5033803;28;20346;-57
2023/08/31 10:17:19;;;;;;;5.90;2.30;;;17.40;99.90;;;;;;5034664;28;20057;-57
2023/08/31 10:19:46;;;;;;;6.63;2.28;;;17.40;99.90;;;;;;5034348;28;20119;-57
2023/08/31 10:22:12;;;;;;;5.45;2.20;;;17.40;99.90;;;;;;5034996;28;20072;-58
2023/08/31 10:24:39;;;;;;;4.85;2.53;;;17.40;99.90;;;;;;5035730;28;20463;-56
2023/08/31 10:27:06;;;;;;;7.68;2.40;;;17.50;99.90;;;;;;5035582;28;20389;-59
2023/08/31 10:29:33;;;;;;;5.90;2.35;;;17.50;99.90;;;;;;5035650;28;20401;-55
2023/08/31 10:32:00;;;;;;;7.13;2.50;;;17.50;99.90;;;;;;5034417;28;20066;-54
2023/08/31 10:34:26;;;;;;;5.18;2.35;;;17.60;99.90;;;;;;5035829;28;20052;-54
2023/08/31 10:36:53;;;;;;;5.13;2.42;;;17.70;99.90;;;;;;5035733;28;20119;-55
2023/08/31 10:39:38;;;;;;;5.95;2.22;;;17.90;99.90;;;;;;5035569;28;20045;-53
2023/08/31 10:42:05;;;;;;;7.63;3.30;;;18.00;99.90;;;;;;5034607;28;20049;-57
2023/08/31 10:44:31;;;;;;;6.90;2.88;;;18.10;99.90;;;;;;5036158;28;20043;-56
2023/08/31 10:46:58;;;;;;;6.05;2.65;;;18.20;99.90;;;;;;5036138;28;20041;-54
2023/08/31 10:49:27;;;;;;;7.05;2.80;;;18.30;99.90;;;;;;5035802;28;20049;-54
2023/08/31 10:51:54;;;;;;;7.75;2.97;;;18.50;99.90;;;;;;5036014;28;20053;-54
2023/08/31 10:54:26;;;;;;;7.68;2.80;;;18.60;99.90;;;;;;5035930;28;20049;-55
2023/08/31 10:56:55;;;;;;;7.80;3.08;;;18.60;99.90;;;;;;5036016;28;20049;-55
2023/08/31 10:59:23;;;;;;;7.45;2.88;;;18.80;99.90;;;;;;5035109;28;20103;-54
2023/08/31 11:01:49;;;;;;;8.55;3.20;;;19.00;99.90;;;;;;5035238;28;20095;-55
2023/08/31 11:04:16;;;;;;;7.28;2.78;;;19.20;99.90;;;;;;5035388;28;20127;-61
2023/08/31 11:06:43;;;;;;;7.38;2.90;;;19.30;99.90;;;;;;5035245;28;20045;-54
2023/08/31 11:09:10;;;;;;;6.57;2.58;;;19.20;99.90;;;;;;5031540;28;20044;-54
2023/08/31 11:11:37;;;;;;;6.03;2.70;;;19.20;99.90;;;;;;5035403;28;20037;-53
2023/08/31 11:14:04;;;;;;;6.63;2.50;;;19.10;99.90;;;;;;5035102;28;20460;-50
2023/08/31 11:16:31;;;;;;;7.15;2.92;;;19.20;99.90;;;;;;5034338;28;20033;-52
2023/08/31 11:18:58;;;;;;;8.25;2.78;;;19.30;99.90;;;;;;5035017;28;20147;-55
2023/08/31 11:21:25;;;;;;;6.90;2.65;;;19.30;99.90;;;;;;5034561;28;20068;-57
2023/08/31 11:23:57;;;;;;;5.95;2.85;;;19.30;99.90;;;;;;5034998;28;20401;-58
2023/08/31 11:26:26;;;;;;;4.93;2.70;;;19.40;99.90;;;;;;5034804;28;20109;-56
2023/08/31 11:28:53;;;;;;;8.00;2.70;;;19.30;99.90;;;;;;5034692;28;20473;-56
2023/08/31 11:31:20;;;;;;;10.00;3.30;;;19.30;99.90;;;;;;5033845;28;20060;-55
2023/08/31 11:33:47;;;;;;;7.38;2.88;;;19.30;99.90;;;;;;5035129;28;20116;-55
2023/08/31 11:36:17;;;;;;;5.97;2.22;;;19.30;99.90;;;;;;5034458;28;20056;-50
2023/08/31 11:38:43;;;;;;;6.13;2.25;;;19.30;99.90;;;;;;5034863;28;20049;-51
2023/08/31 11:41:10;;;;;;;6.68;2.08;;;19.30;99.90;;;;;;5034132;28;20468;-50
2023/08/31 11:43:37;;;;;;;5.18;2.15;;;19.30;99.90;;;;;;5034231;28;20045;-47
2023/08/31 11:46:04;;;;;;;6.68;2.00;;;19.30;99.90;;;;;;5033002;28;20523;-52
2023/08/31 11:48:31;;;;;;;6.65;2.20;;;19.40;99.90;;;;;;5032523;28;20041;-51
2023/08/31 11:50:58;;;;;;;5.63;2.28;;;19.50;99.90;;;;;;5033079;28;20045;-55
2023/08/31 11:53:25;;;;;;;6.22;2.50;;;19.60;99.90;;;;;;5033985;28;20044;-54
2023/08/31 11:55:53;;;;;;;7.65;2.33;;;19.70;99.90;;;;;;5033203;28;20052;-56
2023/08/31 11:58:20;;;;;;;6.78;2.50;;;19.80;99.90;;;;;;5033935;28;20045;-51
2023/08/31 12:00:47;;;;;;;4.68;2.03;;;19.90;99.90;;;;;;5033379;28;20037;-55
2023/08/31 12:03:13;;;;;;;8.20;2.75;;;19.90;99.90;;;;;;5033553;28;20045;-55
2023/08/31 12:05:41;;;;;;;6.95;2.10;;;20.00;99.90;;;;;;5033809;28;20037;-55
2023/08/31 12:08:07;;;;;;;8.55;2.40;;;20.20;99.90;;;;;;5032534;28;20033;-54
2023/08/31 12:10:34;;;;;;;5.43;2.22;;;20.40;99.90;;;;;;5033149;28;20042;-52
2023/08/31 12:13:01;;;;;;;4.57;2.10;;;20.50;99.90;;;;;;5031433;28;20443;-49
2023/08/31 12:15:28;;;;;;;5.47;2.22;;;20.50;99.90;;;;;;5032508;28;20068;-51
2023/08/31 12:17:55;;;;;;;5.70;2.40;;;20.50;99.90;;;;;;5033465;28;20042;-49
2023/08/31 12:20:22;;;;;;;6.22;2.55;;;20.50;99.90;;;;;;5032691;28;20092;-55
2023/08/31 12:22:49;;;;;;;8.05;2.60;;;20.50;99.90;;;;;;5033409;28;20056;-55
2023/08/31 12:25:15;;;;;;;8.77;3.22;;;20.40;99.90;;;;;;5033324;28;20128;-51
2023/08/31 12:27:42;;;;;;;5.07;3.00;;;20.40;99.90;;;;;;5032995;28;20045;-53
2023/08/31 12:30:09;;;;;;;7.88;3.28;;;20.30;99.80;;;;;;5032810;28;20122;-52
2023/08/31 12:32:36;;;;;;;7.53;3.15;;;20.20;99.90;;;;;;5032482;28;20479;-52
2023/08/31 12:35:03;;;;;;;10.05;3.97;;;20.20;99.90;;;;;;5033479;28;20048;-52
2023/08/31 12:37:30;;;;;;;8.98;3.90;;;20.20;99.90;;;;;;5032927;28;20042;-55
2023/08/31 12:39:58;;;;;;;9.70;5.22;;;20.10;99.90;;;;;;5032511;28;20049;-57
2023/08/31 12:42:25;;;;;;;7.97;3.95;;;20.00;99.90;;;;;;5034179;28;20373;-53
2023/08/31 12:44:51;;;;;;;7.35;3.88;;;20.10;99.90;;;;;;5032591;28;20068;-54